Time;durP1;ratioP1;P1;durP2;ratioP2;P2;SDS_P1;SDS_P2;PMS_P1;PMS_P2;Temp;Humidity;BMP_temperature;BMP_pressure;BME280_temperature;BME280_humidity;BME280_pressure;Samples;Min_cycle;Max_cycle;Signal;HPM_P1;HPM_P2
2022/11/20 00:01:06;;;;;;;1999.90;999.90;;;-4.60;99.90;;;;;;5069059;28;20296;-51
2022/11/20 00:03:35;;;;;;;1999.90;999.90;;;-4.60;99.90;;;;;;5054337;28;20229;-54
2022/11/20 00:06:06;;;;;;;1999.90;999.90;;;-4.60;99.90;;;;;;5069434;28;20304;-51
2022/11/20 00:08:35;;;;;;;1999.90;999.90;;;-4.70;99.90;;;;;;5068858;28;20304;-51
2022/11/20 00:11:05;;;;;;;1492.73;949.23;;;-4.60;99.90;;;;;;5069457;28;20213;-52
2022/11/20 00:13:33;;;;;;;1660.40;999.90;;;-4.60;99.90;;;;;;5062029;28;20221;-50
2022/11/20 00:16:04;;;;;;;1999.90;999.90;;;-4.60;99.90;;;;;;5069210;28;20301;-52
2022/11/20 00:18:33;;;;;;;1999.90;999.90;;;-4.60;99.90;;;;;;5055147;28;20583;-52
2022/11/20 00:21:03;;;;;;;1999.90;999.90;;;-4.60;99.90;;;;;;5068853;28;20255;-52
2022/11/20 00:23:33;;;;;;;1999.90;999.90;;;-4.60;99.90;;;;;;5068700;28;20321;-52
2022/11/20 00:26:03;;;;;;;1961.80;999.90;;;-4.60;99.90;;;;;;5068384;28;20249;-53
2022/11/20 00:28:32;;;;;;;1999.90;999.90;;;-4.60;99.90;;;;;;5068464;28;20194;-51
2022/11/20 00:31:05;;;;;;;1929.47;999.90;;;-4.70;99.90;;;;;;5065053;28;20304;-51
2022/11/20 00:33:33;;;;;;;1920.30;999.90;;;-4.60;99.90;;;;;;5068634;28;20217;-52
2022/11/20 00:36:02;;;;;;;1999.90;999.90;;;-4.60;99.90;;;;;;5069061;28;20639;-52
2022/11/20 00:38:32;;;;;;;1998.50;999.90;;;-4.60;99.90;;;;;;5068373;28;20701;-51
2022/11/20 00:41:02;;;;;;;1999.90;999.90;;;-4.60;99.90;;;;;;5068686;28;20288;-52
2022/11/20 00:43:30;;;;;;;1999.90;999.90;;;-4.70;99.90;;;;;;5067961;28;20240;-52
2022/11/20 00:45:58;;;;;;;1999.90;999.90;;;-4.70;99.90;;;;;;5069098;28;20291;-52
2022/11/20 00:48:27;;;;;;;1999.90;999.90;;;-4.60;99.90;;;;;;5068642;28;20260;-51
2022/11/20 00:50:56;;;;;;;1999.90;999.90;;;-4.60;99.90;;;;;;5067969;28;20216;-52
2022/11/20 00:53:25;;;;;;;1999.90;999.90;;;-4.60;99.90;;;;;;5068427;28;20286;-51
2022/11/20 00:55:58;;;;;;;1999.90;999.90;;;-4.70;99.90;;;;;;5061365;28;20232;-51
2022/11/20 00:58:31;;;;;;;1562.77;999.90;;;-4.70;99.90;;;;;;5068476;28;20758;-52
2022/11/20 01:01:02;;;;;;;1872.97;999.90;;;-4.70;99.90;;;;;;5068139;28;20323;-51
2022/11/20 01:03:33;;;;;;;1772.80;999.90;;;-4.70;99.90;;;;;;5067534;28;20282;-51
2022/11/20 01:06:02;;;;;;;1992.80;999.90;;;-4.70;99.90;;;;;;5066660;28;20209;-52
2022/11/20 01:08:32;;;;;;;1999.90;999.90;;;-4.70;99.90;;;;;;5067717;28;20682;-52
2022/11/20 01:11:02;;;;;;;1900.23;999.90;;;-4.70;99.90;;;;;;5068495;28;20296;-52
2022/11/20 01:13:37;;;;;;;1999.90;999.90;;;-4.80;99.90;;;;;;5067412;28;20274;-51
2022/11/20 01:16:07;;;;;;;1815.27;999.90;;;-4.70;99.90;;;;;;5069035;28;20676;-52
2022/11/20 01:18:35;;;;;;;1999.90;999.90;;;-4.80;99.90;;;;;;5068106;28;20304;-52
2022/11/20 01:21:05;;;;;;;1999.90;999.90;;;-4.80;99.90;;;;;;5067856;28;20296;-52
2022/11/20 01:23:34;;;;;;;1983.40;999.90;;;-4.70;99.90;;;;;;5071146;28;20235;-51
2022/11/20 01:26:05;;;;;;;1999.90;999.90;;;-4.70;99.90;;;;;;5072265;28;20292;-51
2022/11/20 01:28:33;;;;;;;1999.90;999.90;;;-4.80;99.90;;;;;;5072118;28;20287;-52
2022/11/20 01:31:01;;;;;;;1993.77;999.90;;;-4.70;99.90;;;;;;5071521;28;20296;-52
2022/11/20 01:33:29;;;;;;;1989.77;999.90;;;-4.70;99.90;;;;;;5070583;28;20237;-52
2022/11/20 01:36:05;;;;;;;1983.97;999.90;;;-4.70;99.90;;;;;;5069513;28;20209;-51
2022/11/20 01:38:33;;;;;;;1999.90;999.90;;;-4.80;99.90;;;;;;5071231;28;20213;-52
2022/11/20 01:41:01;;;;;;;1991.57;999.90;;;-4.80;99.90;;;;;;5072021;28;20237;-51
2022/11/20 01:43:30;;;;;;;1710.47;999.90;;;-4.80;99.90;;;;;;5070830;28;20239;-52
2022/11/20 01:46:05;;;;;;;1793.03;999.90;;;-4.70;99.90;;;;;;5071506;28;20210;-52
2022/11/20 01:48:41;;;;;;;1849.37;999.90;;;-4.70;99.90;;;;;;5071961;28;20288;-53
2022/11/20 01:51:16;;;;;;;1536.43;999.90;;;-4.70;99.90;;;;;;5066828;28;20233;-52
2022/11/20 01:53:44;;;;;;;1823.97;999.90;;;-4.60;99.90;;;;;;5061296;28;20214;-51
2022/11/20 01:56:14;;;;;;;1999.90;999.90;;;-4.50;99.90;;;;;;5071042;28;20319;-51
2022/11/20 01:58:49;;;;;;;1999.90;999.90;;;-4.40;99.90;;;;;;5072178;28;20311;-52
2022/11/20 02:01:18;;;;;;;1381.70;953.10;;;-4.40;99.90;;;;;;5071120;28;20654;-52
2022/11/20 02:03:46;;;;;;;1474.90;960.90;;;-4.30;99.90;;;;;;5070421;28;20347;-51
2022/11/20 02:06:20;;;;;;;1812.70;999.10;;;-4.10;99.90;;;;;;5070927;28;20300;-52
2022/11/20 02:08:48;;;;;;;1352.80;902.37;;;-4.00;99.90;;;;;;5072023;28;20199;-52
2022/11/20 02:11:16;;;;;;;890.90;681.27;;;-3.90;99.90;;;;;;5071412;28;20325;-51
2022/11/20 02:13:45;;;;;;;1791.87;839.83;;;-3.70;99.90;;;;;;5062443;28;20232;-52
2022/11/20 02:16:16;;;;;;;1999.90;999.90;;;-3.70;99.90;;;;;;5071163;28;20209;-51
2022/11/20 02:18:46;;;;;;;1999.90;999.90;;;-3.70;99.90;;;;;;5070402;28;20290;-51
2022/11/20 02:21:30;;;;;;;1747.67;849.70;;;-3.70;99.90;;;;;;5070908;28;20298;-52
2022/11/20 02:24:06;;;;;;;1999.90;999.90;;;-3.70;99.90;;;;;;5068055;28;20308;-52
2022/11/20 02:26:40;;;;;;;1999.90;999.90;;;-3.70;99.90;;;;;;5070677;28;20233;-52
2022/11/20 02:29:08;;;;;;;1534.27;928.10;;;-3.60;99.90;;;;;;5071136;28;20908;-51
2022/11/20 02:31:41;;;;;;;1999.90;992.47;;;-3.60;99.90;;;;;;5070803;28;20293;-51
2022/11/20 02:34:10;;;;;;;1378.07;980.33;;;-3.50;99.90;;;;;;5062779;28;20218;-51
2022/11/20 02:36:40;;;;;;;1035.63;702.40;;;-3.50;99.90;;;;;;5068458;28;20250;-51
2022/11/20 02:39:12;;;;;;;589.83;528.13;;;-3.30;99.90;;;;;;5071187;28;20199;-52
2022/11/20 02:41:40;;;;;;;585.07;473.60;;;-3.20;99.90;;;;;;5070829;28;20213;-51
2022/11/20 02:44:08;;;;;;;515.97;451.33;;;-3.10;99.90;;;;;;5061631;28;20673;-51
2022/11/20 02:46:36;;;;;;;835.57;610.00;;;-3.00;99.90;;;;;;5070977;28;20297;-51
2022/11/20 02:49:04;;;;;;;845.00;722.57;;;-2.90;99.90;;;;;;5069003;28;20659;-51
2022/11/20 02:51:33;;;;;;;731.83;596.73;;;-2.90;99.90;;;;;;5070680;28;20293;-51
2022/11/20 02:54:01;;;;;;;628.53;560.57;;;-2.90;99.90;;;;;;5069715;28;20223;-52
2022/11/20 02:56:31;;;;;;;801.07;614.67;;;-2.80;99.90;;;;;;5070684;28;20284;-52
2022/11/20 02:58:59;;;;;;;726.13;619.47;;;-2.70;99.90;;;;;;5070108;28;20703;-52
2022/11/20 03:01:27;;;;;;;1584.07;709.77;;;-2.70;99.90;;;;;;5069575;28;20298;-52
2022/11/20 03:03:55;;;;;;;561.07;343.03;;;-2.60;99.90;;;;;;5065396;28;20227;-52
2022/11/20 03:06:23;;;;;;;1519.57;785.73;;;-2.60;99.90;;;;;;5065697;28;20243;-52
2022/11/20 03:08:51;;;;;;;1455.27;634.27;;;-2.50;99.90;;;;;;5070391;28;20208;-51
2022/11/20 03:11:20;;;;;;;199.27;181.23;;;-2.50;99.90;;;;;;5070404;28;20299;-52
2022/11/20 03:13:49;;;;;;;336.50;299.70;;;-2.40;99.90;;;;;;5069300;28;20229;-52
2022/11/20 03:16:19;;;;;;;292.20;261.27;;;-2.40;99.90;;;;;;5070396;28;20306;-52
2022/11/20 03:18:47;;;;;;;546.60;355.57;;;-2.30;99.90;;;;;;5069583;28;20254;-52
2022/11/20 03:21:16;;;;;;;461.43;387.50;;;-2.30;99.90;;;;;;5060672;28;20212;-52
2022/11/20 03:23:44;;;;;;;268.67;239.20;;;-2.20;99.90;;;;;;5067550;28;20262;-51
2022/11/20 03:26:14;;;;;;;258.70;231.07;;;-2.20;99.90;;;;;;5070152;28;20641;-52
2022/11/20 03:28:43;;;;;;;1999.90;711.40;;;-2.10;99.90;;;;;;5069146;28;20748;-53
2022/11/20 03:31:15;;;;;;;364.97;325.77;;;-2.10;99.90;;;;;;5069956;28;20240;-52
2022/11/20 03:33:44;;;;;;;241.03;204.07;;;-2.10;99.90;;;;;;5069267;28;20593;-51
2022/11/20 03:36:14;;;;;;;166.13;150.30;;;-2.10;99.90;;;;;;5068624;28;20299;-52
2022/11/20 03:38:43;;;;;;;237.33;211.20;;;-2.10;99.90;;;;;;5069229;28;20655;-52
2022/11/20 03:41:13;;;;;;;219.87;189.57;;;-2.00;99.90;;;;;;5069578;28;20299;-52
2022/11/20 03:43:41;;;;;;;492.13;437.93;;;-2.00;99.90;;;;;;5069018;28;20322;-52
2022/11/20 03:46:09;;;;;;;1999.90;900.73;;;-2.00;99.90;;;;;;5068342;28;20241;-52
2022/11/20 03:48:39;;;;;;;442.20;398.90;;;-1.90;99.90;;;;;;5069056;28;20212;-52
2022/11/20 03:51:12;;;;;;;433.90;387.83;;;-1.90;99.90;;;;;;5069309;28;20231;-52
2022/11/20 03:53:40;;;;;;;421.93;377.67;;;-1.90;99.90;;;;;;5068055;28;20230;-51
2022/11/20 03:56:09;;;;;;;522.10;286.30;;;-1.80;99.90;;;;;;5068768;28;20302;-52
2022/11/20 03:58:39;;;;;;;348.17;193.73;;;-1.80;99.90;;;;;;5068700;28;20212;-52
2022/11/20 04:01:09;;;;;;;340.43;290.03;;;-1.80;99.90;;;;;;5066878;28;20296;-51
2022/11/20 04:03:39;;;;;;;427.20;274.40;;;-1.70;99.90;;;;;;5068539;28;20315;-52
2022/11/20 04:06:10;;;;;;;514.07;335.90;;;-1.70;99.90;;;;;;5068516;28;20307;-53
2022/11/20 04:08:39;;;;;;;353.40;197.93;;;-1.60;99.90;;;;;;5057926;28;20670;-53
2022/11/20 04:11:12;;;;;;;353.47;171.83;;;-1.50;99.90;;;;;;5067438;28;20296;-52
2022/11/20 04:13:40;;;;;;;173.93;155.93;;;-1.50;99.90;;;;;;5067274;28;20328;-52
2022/11/20 04:16:10;;;;;;;82.53;51.47;;;-1.40;99.90;;;;;;5068652;28;20820;-52
2022/11/20 04:18:39;;;;;;;246.53;149.80;;;-1.40;99.90;;;;;;5068480;28;20296;-52
2022/11/20 04:21:08;;;;;;;83.53;57.77;;;-1.30;99.90;;;;;;5068427;28;20304;-53
2022/11/20 04:23:36;;;;;;;356.67;287.90;;;-1.30;99.90;;;;;;5061246;28;20606;-52
2022/11/20 04:26:06;;;;;;;358.37;159.10;;;-1.30;99.90;;;;;;5068336;28;20296;-51
2022/11/20 04:28:35;;;;;;;363.67;299.00;;;-1.40;99.90;;;;;;5067031;28;20390;-52
2022/11/20 04:31:04;;;;;;;437.60;318.97;;;-1.50;99.90;;;;;;5068817;28;20209;-52
2022/11/20 04:33:33;;;;;;;787.90;332.37;;;-1.40;99.90;;;;;;5068556;28;20782;-52
2022/11/20 04:36:05;;;;;;;204.47;166.20;;;-1.40;99.90;;;;;;5067283;28;20213;-51
2022/11/20 04:38:33;;;;;;;235.57;180.33;;;-1.40;99.90;;;;;;5068704;28;20232;-52
2022/11/20 04:41:02;;;;;;;213.40;189.97;;;-1.40;99.90;;;;;;5068417;28;20221;-52
2022/11/20 04:43:31;;;;;;;170.43;138.90;;;-1.40;99.90;;;;;;5068071;28;20238;-53
2022/11/20 04:46:00;;;;;;;176.20;138.47;;;-1.40;99.90;;;;;;5064100;28;20278;-52
2022/11/20 04:48:29;;;;;;;224.43;174.60;;;-1.40;99.90;;;;;;5068281;28;20284;-51
2022/11/20 04:50:58;;;;;;;172.03;138.63;;;-1.40;99.90;;;;;;5068788;28;20300;-52
2022/11/20 04:53:27;;;;;;;249.97;158.37;;;-1.40;99.90;;;;;;5067355;28;20288;-51
2022/11/20 04:56:01;;;;;;;212.13;183.53;;;-1.30;99.90;;;;;;5069188;28;20303;-52
2022/11/20 04:58:29;;;;;;;226.83;201.90;;;-1.30;99.90;;;;;;5071958;28;20200;-52
2022/11/20 05:01:02;;;;;;;181.17;134.17;;;-1.30;99.90;;;;;;5073307;28;20296;-53
2022/11/20 05:03:31;;;;;;;168.70;140.70;;;-1.20;99.90;;;;;;5072710;28;20225;-51
2022/11/20 05:06:01;;;;;;;109.20;66.83;;;-1.20;99.90;;;;;;5071983;28;20325;-51
2022/11/20 05:08:31;;;;;;;304.90;184.50;;;-1.20;99.90;;;;;;5072758;28;20236;-52
2022/11/20 05:11:03;;;;;;;156.93;86.47;;;-1.20;99.90;;;;;;5072549;28;20200;-52
2022/11/20 05:13:31;;;;;;;275.33;211.00;;;-1.30;99.90;;;;;;5071876;28;21036;-52
2022/11/20 05:16:03;;;;;;;266.03;156.30;;;-1.30;99.90;;;;;;5072818;28;20210;-52
2022/11/20 05:18:31;;;;;;;198.80;119.80;;;-1.30;99.90;;;;;;5061097;28;20206;-52
2022/11/20 05:20:59;;;;;;;252.83;189.97;;;-1.30;99.90;;;;;;5072293;28;20211;-52
2022/11/20 05:23:29;;;;;;;277.40;181.80;;;-1.20;99.90;;;;;;5071785;28;20930;-51
2022/11/20 05:25:58;;;;;;;134.13;79.60;;;-1.30;99.90;;;;;;5067194;28;20209;-52
2022/11/20 05:28:27;;;;;;;146.33;123.73;;;-1.20;99.90;;;;;;5064930;28;20299;-52
2022/11/20 05:30:56;;;;;;;344.33;261.10;;;-1.10;99.90;;;;;;5072288;28;20768;-52
2022/11/20 05:33:24;;;;;;;208.57;134.27;;;-1.10;99.90;;;;;;5072160;28;20297;-53
2022/11/20 05:35:52;;;;;;;166.87;112.77;;;-1.10;99.90;;;;;;5071041;28;20303;-52
2022/11/20 05:38:20;;;;;;;204.37;113.77;;;-1.00;99.90;;;;;;5068986;28;20301;-52
2022/11/20 05:40:49;;;;;;;156.77;104.80;;;-1.00;99.90;;;;;;5068715;28;20319;-52
2022/11/20 05:43:17;;;;;;;294.47;150.80;;;-1.00;99.90;;;;;;5071269;28;20741;-51
2022/11/20 05:45:53;;;;;;;282.47;180.30;;;-0.90;99.90;;;;;;5072153;28;20301;-52
2022/11/20 05:48:21;;;;;;;407.83;194.37;;;-1.00;99.90;;;;;;5072554;28;20609;-52
2022/11/20 05:50:49;;;;;;;135.63;87.00;;;-1.00;99.90;;;;;;5069908;28;20210;-52
2022/11/20 05:53:18;;;;;;;123.17;73.90;;;-0.90;99.90;;;;;;5070875;28;20297;-52
2022/11/20 05:55:46;;;;;;;344.37;230.43;;;-0.90;99.90;;;;;;5071289;28;20730;-52
2022/11/20 05:58:15;;;;;;;109.17;71.33;;;-0.90;99.90;;;;;;5071078;28;20236;-51
2022/11/20 06:00:43;;;;;;;107.77;58.07;;;-0.90;99.90;;;;;;5079390;28;20283;-52
2022/11/20 06:03:11;;;;;;;140.83;100.63;;;-0.80;99.90;;;;;;5085736;28;20661;-51
2022/11/20 06:05:39;;;;;;;183.23;130.37;;;-0.70;99.90;;;;;;5079830;28;20339;-52
2022/11/20 06:08:07;;;;;;;231.63;142.60;;;-0.70;99.90;;;;;;5080564;28;20292;-52
2022/11/20 06:10:35;;;;;;;157.53;91.90;;;-0.70;99.90;;;;;;5075373;28;20584;-52
2022/11/20 06:13:03;;;;;;;175.33;118.57;;;-0.70;99.90;;;;;;5078464;28;20301;-52
2022/11/20 06:15:33;;;;;;;196.67;121.10;;;-0.70;99.90;;;;;;5070951;28;20259;-51
2022/11/20 06:18:01;;;;;;;228.20;137.67;;;-0.60;99.90;;;;;;5079695;28;20201;-52
2022/11/20 06:20:29;;;;;;;241.83;158.37;;;-0.60;99.90;;;;;;5067876;28;20761;-52
2022/11/20 06:22:57;;;;;;;182.00;120.50;;;-0.60;99.90;;;;;;5070277;28;20316;-52
2022/11/20 06:25:25;;;;;;;167.07;104.37;;;-0.60;99.90;;;;;;5073878;28;20265;-51
2022/11/20 06:27:53;;;;;;;281.93;148.30;;;-0.60;99.90;;;;;;5072878;28;20317;-51
2022/11/20 06:30:21;;;;;;;181.20;107.50;;;-0.60;99.90;;;;;;5070357;28;20205;-52
2022/11/20 06:32:50;;;;;;;235.90;154.83;;;-0.50;99.90;;;;;;5067055;28;20838;-52
2022/11/20 06:35:18;;;;;;;201.47;120.67;;;-0.60;99.90;;;;;;5069264;28;20233;-52
2022/11/20 06:37:46;;;;;;;175.47;117.33;;;-0.60;99.90;;;;;;5070823;28;20289;-52
2022/11/20 06:40:14;;;;;;;269.07;145.97;;;-0.60;99.90;;;;;;5069240;28;20297;-51
2022/11/20 06:42:42;;;;;;;184.47;116.13;;;-0.50;99.90;;;;;;5069735;28;20634;-52
2022/11/20 06:45:11;;;;;;;220.07;133.53;;;-0.50;99.90;;;;;;5069300;28;20310;-52
2022/11/20 06:47:39;;;;;;;223.50;154.23;;;-0.50;99.90;;;;;;5070789;28;20240;-51
2022/11/20 06:50:09;;;;;;;180.67;125.93;;;-0.40;99.90;;;;;;5082959;28;20745;-52
2022/11/20 06:52:37;;;;;;;129.57;67.60;;;-0.50;99.90;;;;;;5070545;28;20201;-52
2022/11/20 06:55:10;;;;;;;172.77;112.03;;;-0.50;99.90;;;;;;5070140;28;20302;-53
2022/11/20 06:57:38;;;;;;;168.23;88.80;;;-0.50;99.90;;;;;;5070478;28;20304;-52
2022/11/20 07:00:07;;;;;;;179.77;111.97;;;-0.50;99.90;;;;;;5070120;28;20760;-51
2022/11/20 07:02:35;;;;;;;135.23;80.90;;;-0.40;99.90;;;;;;5069428;28;20758;-51
2022/11/20 07:05:04;;;;;;;145.13;88.37;;;-0.40;99.90;;;;;;5069454;28;20647;-52
2022/11/20 07:07:33;;;;;;;151.60;102.50;;;-0.30;99.90;;;;;;5069627;28;20294;-52
2022/11/20 07:10:02;;;;;;;116.53;69.70;;;-0.30;99.90;;;;;;5065347;28;20578;-51
2022/11/20 07:12:30;;;;;;;221.13;106.13;;;-0.30;99.90;;;;;;5069118;28;20732;-53
2022/11/20 07:14:59;;;;;;;303.97;142.17;;;-0.30;99.90;;;;;;5065431;28;20313;-53
2022/11/20 07:17:27;;;;;;;265.23;156.13;;;-0.30;99.90;;;;;;5070360;28;20212;-52
2022/11/20 07:19:56;;;;;;;232.67;185.80;;;-0.30;99.90;;;;;;5068649;28;20264;-52
2022/11/20 07:22:24;;;;;;;227.03;136.20;;;-0.30;99.90;;;;;;5068840;28;20197;-52
2022/11/20 07:24:54;;;;;;;293.50;150.27;;;-0.30;99.90;;;;;;5069041;28;20245;-52
2022/11/20 07:27:23;;;;;;;113.53;54.97;;;-0.20;99.90;;;;;;5068812;28;20217;-52
2022/11/20 07:29:51;;;;;;;116.60;68.93;;;-0.20;99.90;;;;;;5066037;28;20205;-52
2022/11/20 07:32:19;;;;;;;259.17;179.17;;;-0.10;99.90;;;;;;5067800;28;20299;-52
2022/11/20 07:34:47;;;;;;;164.00;92.20;;;-0.10;99.90;;;;;;5066801;28;20321;-53
2022/11/20 07:37:15;;;;;;;176.13;109.93;;;-0.10;99.90;;;;;;5067813;28;20202;-52
2022/11/20 07:39:43;;;;;;;137.40;64.60;;;-0.10;99.90;;;;;;5068924;28;20873;-52
2022/11/20 07:42:13;;;;;;;194.70;105.57;;;-0.20;99.90;;;;;;5068942;28;20224;-51
2022/11/20 07:44:41;;;;;;;152.50;87.63;;;0.00;99.90;;;;;;5069371;28;20269;-52
2022/11/20 07:47:09;;;;;;;286.37;202.20;;;-0.10;99.90;;;;;;5068034;28;20318;-52
2022/11/20 07:49:37;;;;;;;157.73;81.73;;;-0.10;99.90;;;;;;5069417;28;20294;-52
2022/11/20 07:52:05;;;;;;;163.00;88.07;;;0.00;99.90;;;;;;5069010;28;20212;-52
2022/11/20 07:54:33;;;;;;;254.37;99.67;;;0.00;99.90;;;;;;5073107;28;20329;-52
2022/11/20 07:57:01;;;;;;;152.73;84.10;;;0.00;99.90;;;;;;5077293;28;20750;-52
2022/11/20 07:59:30;;;;;;;214.47;109.73;;;0.10;99.90;;;;;;5069183;28;20209;-52
2022/11/20 08:01:58;;;;;;;137.90;80.97;;;0.10;99.90;;;;;;5068637;28;20611;-52
2022/11/20 08:04:26;;;;;;;178.30;114.83;;;0.10;99.90;;;;;;5068589;28;20314;-53
2022/11/20 08:06:54;;;;;;;192.83;121.13;;;0.20;99.90;;;;;;5069274;28;20235;-51
2022/11/20 08:09:22;;;;;;;174.97;97.83;;;0.20;99.90;;;;;;5070594;28;20249;-52
2022/11/20 08:14:37;;;;;;;219.63;93.70;;;0.20;99.90;;;;;;5060217;28;20316;-52
2022/11/20 08:17:05;;;;;;;149.67;82.03;;;0.20;99.90;;;;;;5069044;28;21033;-52
2022/11/20 08:19:33;;;;;;;140.07;56.93;;;0.30;99.90;;;;;;5066491;28;20325;-52
2022/11/20 08:22:01;;;;;;;191.37;108.70;;;0.30;99.90;;;;;;5070281;28;20956;-53
2022/11/20 08:24:29;;;;;;;207.70;130.00;;;0.40;99.90;;;;;;5066311;28;20999;-52
2022/11/20 08:26:58;;;;;;;192.13;133.17;;;0.40;99.90;;;;;;5065071;28;20337;-53
2022/11/20 08:29:27;;;;;;;144.30;78.63;;;0.50;99.90;;;;;;5068898;28;20203;-52
2022/11/20 08:31:56;;;;;;;175.10;84.23;;;0.50;99.90;;;;;;5067470;28;20314;-52
2022/11/20 08:34:24;;;;;;;167.30;91.67;;;0.50;99.90;;;;;;5062526;28;20311;-52
2022/11/20 08:36:52;;;;;;;126.50;81.33;;;0.50;99.90;;;;;;5067477;28;20297;-51
2022/11/20 08:39:21;;;;;;;166.53;86.97;;;0.50;99.90;;;;;;5066730;28;20704;-52
2022/11/20 08:41:49;;;;;;;156.87;80.93;;;0.50;99.90;;;;;;5067061;28;20216;-52
2022/11/20 08:44:17;;;;;;;195.30;80.83;;;0.60;99.90;;;;;;5060414;28;20314;-52
2022/11/20 08:46:46;;;;;;;157.60;81.53;;;0.60;99.90;;;;;;5066134;28;20255;-53
2022/11/20 08:49:17;;;;;;;221.43;114.03;;;0.60;99.90;;;;;;5066602;28;20655;-52
2022/11/20 08:51:47;;;;;;;215.53;114.63;;;0.50;99.90;;;;;;5067722;28;20290;-52
2022/11/20 08:54:19;;;;;;;172.43;71.07;;;0.50;99.90;;;;;;5064571;28;20329;-52
2022/11/20 08:56:47;;;;;;;131.33;69.53;;;0.50;99.90;;;;;;5067600;28;20206;-52
2022/11/20 08:59:15;;;;;;;154.87;68.43;;;0.50;99.90;;;;;;5065198;28;20262;-52
2022/11/20 09:02:03;;;;;;;158.33;85.37;;;0.60;99.90;;;;;;5066434;28;20210;-52
2022/11/20 09:04:32;;;;;;;135.03;62.90;;;0.60;99.90;;;;;;5065901;28;20573;-53
2022/11/20 09:07:01;;;;;;;176.90;98.93;;;0.60;99.90;;;;;;5067497;28;20276;-53
2022/11/20 09:09:29;;;;;;;194.27;110.83;;;0.60;99.90;;;;;;5067659;28;20266;-53
2022/11/20 09:11:57;;;;;;;174.37;91.53;;;0.70;99.90;;;;;;5065901;28;20214;-53
2022/11/20 09:14:28;;;;;;;162.93;83.67;;;0.80;99.90;;;;;;5067947;28;20323;-52
2022/11/20 09:16:58;;;;;;;154.10;81.73;;;0.80;99.90;;;;;;5065564;28;20286;-52
2022/11/20 09:19:26;;;;;;;165.23;113.20;;;0.80;99.90;;;;;;5068213;28;20297;-52
2022/11/20 09:22:04;;;;;;;165.87;98.50;;;0.80;99.90;;;;;;5065966;28;20854;-53
2022/11/20 09:24:32;;;;;;;161.07;69.53;;;0.80;99.90;;;;;;5064824;28;20293;-53
2022/11/20 09:27:03;;;;;;;219.27;119.60;;;0.90;99.90;;;;;;5070545;28;20341;-52
2022/11/20 09:29:32;;;;;;;197.83;111.17;;;0.90;99.90;;;;;;5067935;28;20297;-52
2022/11/20 09:32:00;;;;;;;233.93;129.07;;;0.90;99.90;;;;;;5064632;28;20318;-52
2022/11/20 09:34:28;;;;;;;105.17;55.30;;;1.00;99.90;;;;;;5061849;28;20265;-53
2022/11/20 09:36:56;;;;;;;256.43;135.97;;;1.00;99.90;;;;;;5064311;28;20240;-52
2022/11/20 09:39:28;;;;;;;140.40;71.87;;;1.00;99.90;;;;;;5065005;28;20206;-52
2022/11/20 09:42:23;;;;;;;145.77;84.23;;;1.00;99.90;;;;;;5065199;28;20236;-53
2022/11/20 09:45:14;;;;;;;153.97;91.00;;;1.00;99.90;;;;;;5071001;28;20263;-52
2022/11/20 09:48:01;;;;;;;173.17;109.13;;;1.10;99.90;;;;;;5072230;28;20222;-52
2022/11/20 09:50:33;;;;;;;172.27;90.50;;;1.10;99.90;;;;;;5064481;28;20292;-53
2022/11/20 09:53:17;;;;;;;160.53;95.00;;;1.20;99.90;;;;;;5071286;28;20639;-53
2022/11/20 09:55:47;;;;;;;110.47;53.40;;;1.30;99.90;;;;;;5072374;28;20252;-51
2022/11/20 09:58:23;;;;;;;136.50;83.90;;;1.30;99.90;;;;;;5071436;28;20285;-52
2022/11/20 10:00:56;;;;;;;154.97;92.17;;;1.40;99.90;;;;;;5072039;28;20665;-52
2022/11/20 10:03:36;;;;;;;204.33;113.83;;;1.40;99.90;;;;;;5071492;28;20197;-52
2022/11/20 10:06:10;;;;;;;110.80;57.80;;;1.40;99.90;;;;;;5071729;28;20302;-53
2022/11/20 10:08:44;;;;;;;135.93;83.77;;;1.50;99.90;;;;;;5071536;28;20212;-53
2022/11/20 10:11:20;;;;;;;123.43;70.93;;;1.40;99.90;;;;;;5070933;28;20288;-53
2022/11/20 10:13:57;;;;;;;132.27;69.83;;;1.50;99.90;;;;;;5068994;28;20251;-52
2022/11/20 10:16:40;;;;;;;174.03;102.23;;;1.50;99.90;;;;;;5071180;28;20209;-52
2022/11/20 10:19:20;;;;;;;140.90;83.77;;;1.50;99.90;;;;;;5065390;28;20291;-52
2022/11/20 10:21:58;;;;;;;175.37;94.77;;;1.50;99.90;;;;;;5069766;28;20617;-52
2022/11/20 10:24:42;;;;;;;168.33;80.40;;;1.60;99.90;;;;;;5058962;28;20244;-52
2022/11/20 10:27:31;;;;;;;289.17;115.80;;;1.70;99.90;;;;;;5063927;28;20977;-52
2022/11/20 10:30:03;;;;;;;271.33;112.23;;;1.70;99.90;;;;;;5062680;28;20326;-51
2022/11/20 10:32:37;;;;;;;144.20;89.80;;;1.70;99.90;;;;;;5070824;28;20236;-52
2022/11/20 10:35:15;;;;;;;101.77;58.53;;;1.80;99.90;;;;;;5070702;28;20322;-52
2022/11/20 10:37:45;;;;;;;119.33;66.03;;;1.80;99.90;;;;;;5063860;28;20289;-52
2022/11/20 10:40:23;;;;;;;124.50;75.97;;;1.90;99.90;;;;;;5062692;28;20303;-52
2022/11/20 10:42:55;;;;;;;164.13;102.83;;;1.90;99.90;;;;;;5070689;28;20236;-52
2022/11/20 10:45:36;;;;;;;130.07;71.20;;;2.00;99.90;;;;;;5069479;28;20233;-52
2022/11/20 10:48:15;;;;;;;212.70;132.07;;;2.00;99.90;;;;;;5067025;28;20222;-52
2022/11/20 10:50:58;;;;;;;153.03;100.57;;;1.90;99.90;;;;;;5070923;28;20210;-52
2022/11/20 10:53:41;;;;;;;133.23;86.70;;;2.00;99.90;;;;;;5069312;28;20288;-52
2022/11/20 10:56:18;;;;;;;127.63;81.63;;;2.10;99.90;;;;;;5065059;28;20300;-52
2022/11/20 10:59:03;;;;;;;546.40;199.33;;;2.10;99.90;;;;;;5070207;28;20197;-52
2022/11/20 11:01:31;;;;;;;144.27;76.90;;;2.20;99.90;;;;;;5058161;28;20292;-52
2022/11/20 11:03:59;;;;;;;103.50;59.37;;;2.20;99.90;;;;;;5069017;28;20225;-52
2022/11/20 11:06:35;;;;;;;211.10;119.43;;;2.20;99.90;;;;;;5070006;28;21127;-52
2022/11/20 11:09:12;;;;;;;195.27;102.67;;;2.20;99.90;;;;;;5061718;28;20312;-52
2022/11/20 11:11:40;;;;;;;121.93;74.43;;;2.10;99.90;;;;;;5069741;28;20739;-52
2022/11/20 11:14:13;;;;;;;167.73;93.33;;;2.30;99.90;;;;;;5060029;28;20280;-59
2022/11/20 11:16:51;;;;;;;145.40;71.83;;;2.30;99.90;;;;;;5069659;28;20617;-53
2022/11/20 11:19:21;;;;;;;109.00;64.77;;;2.30;99.90;;;;;;5070921;28;20204;-53
2022/11/20 11:21:53;;;;;;;125.23;71.07;;;2.30;99.90;;;;;;5057055;28;20214;-52
2022/11/20 11:24:24;;;;;;;243.13;120.03;;;2.40;99.90;;;;;;5069727;28;20224;-52
2022/11/20 11:27:13;;;;;;;121.07;82.03;;;2.50;99.90;;;;;;5066496;28;20297;-53
2022/11/20 11:29:46;;;;;;;121.03;73.33;;;2.50;99.90;;;;;;5062923;28;20266;-52
2022/11/20 11:32:16;;;;;;;153.97;96.17;;;2.50;99.90;;;;;;5068068;28;20205;-52
2022/11/20 11:34:44;;;;;;;322.60;95.03;;;2.50;99.90;;;;;;5073437;28;20352;-52
2022/11/20 11:37:18;;;;;;;116.73;79.47;;;2.50;99.90;;;;;;5080084;28;20253;-52
2022/11/20 11:39:48;;;;;;;136.13;91.70;;;2.40;99.90;;;;;;5074412;28;20571;-53
2022/11/20 11:42:42;;;;;;;197.17;108.13;;;2.40;99.90;;;;;;5068478;28;20210;-53
2022/11/20 11:45:17;;;;;;;386.33;129.83;;;2.40;99.90;;;;;;5059584;28;20233;-52
2022/11/20 11:47:47;;;;;;;304.43;173.50;;;2.40;99.90;;;;;;5066389;28;20236;-52
2022/11/20 11:50:19;;;;;;;197.70;86.93;;;2.50;99.90;;;;;;5069826;28;20200;-53
2022/11/20 11:52:52;;;;;;;95.63;56.40;;;2.40;99.90;;;;;;5069232;28;20234;-53
2022/11/20 11:55:30;;;;;;;200.27;91.33;;;2.40;99.90;;;;;;5069488;28;20235;-52
2022/11/20 11:58:12;;;;;;;107.43;56.33;;;2.60;99.90;;;;;;5062423;28;20762;-53
2022/11/20 12:00:50;;;;;;;619.80;168.87;;;2.60;99.90;;;;;;5068949;28;20201;-52
2022/11/20 12:03:24;;;;;;;126.13;82.90;;;2.60;99.90;;;;;;5068646;28;20292;-53
2022/11/20 12:05:58;;;;;;;160.67;89.50;;;2.60;99.90;;;;;;5068147;28;20240;-52
2022/11/20 12:08:30;;;;;;;268.00;107.90;;;2.60;99.90;;;;;;5067012;28;20213;-51
2022/11/20 12:11:04;;;;;;;282.13;158.63;;;2.50;99.90;;;;;;5069264;28;20211;-52
2022/11/20 12:13:45;;;;;;;94.13;77.17;;;2.60;99.90;;;;;;5068342;28;20761;-52
2022/11/20 12:16:18;;;;;;;167.60;103.07;;;2.60;99.90;;;;;;5068743;28;20296;-52
2022/11/20 12:18:49;;;;;;;188.33;87.57;;;2.70;99.90;;;;;;5068539;28;20194;-52
2022/11/20 12:21:29;;;;;;;150.10;63.10;;;2.70;99.90;;;;;;5065676;28;20295;-53
2022/11/20 12:24:21;;;;;;;96.93;65.07;;;2.80;99.90;;;;;;5068525;28;20220;-52
2022/11/20 12:27:04;;;;;;;110.47;78.87;;;2.80;99.90;;;;;;5069133;28;20702;-53
2022/11/20 12:29:44;;;;;;;111.47;89.60;;;2.80;99.90;;;;;;5067039;28;20299;-51
2022/11/20 12:32:50;;;;;;;106.17;77.83;;;2.90;99.90;;;;;;5062340;28;20249;-51
2022/11/20 12:35:45;;;;;;;362.93;101.13;;;3.00;99.90;;;;;;5067687;28;20239;-51